createdAt,value
2024-01-20T00:00:48.410Z,16.20
2024-01-20T00:03:15.539Z,12.63
2024-01-20T00:05:43.066Z,10.70
2024-01-20T00:08:10.253Z,11.73
2024-01-20T00:10:38.365Z,8.70
2024-01-20T00:13:05.869Z,12.73
2024-01-20T00:15:33.765Z,16.67
2024-01-20T00:18:01.229Z,8.93
2024-01-20T00:20:28.481Z,13.90
2024-01-20T00:22:55.782Z,11.32
2024-01-20T00:25:23.052Z,12.32
2024-01-20T00:27:53.817Z,10.63
2024-01-20T00:30:22.359Z,12.05
2024-01-20T00:32:49.791Z,16.63
2024-01-20T00:35:17.310Z,10.30
2024-01-20T00:37:44.413Z,12.77
2024-01-20T00:40:12.205Z,14.97
2024-01-20T00:42:39.361Z,10.57
2024-01-20T00:45:07.255Z,13.25
2024-01-20T00:47:36.786Z,11.93
2024-01-20T00:50:06.389Z,13.50
2024-01-20T00:52:33.663Z,12.60
2024-01-20T00:55:00.849Z,11.73
2024-01-20T00:57:27.924Z,13.55
2024-01-20T00:59:56.623Z,12.70
2024-01-20T01:02:26.253Z,12.40
2024-01-20T01:04:53.709Z,14.27
2024-01-20T01:07:21.050Z,14.50
2024-01-20T01:09:49.800Z,8.95
2024-01-20T01:12:17.012Z,9.50
2024-01-20T01:14:44.096Z,10.00
2024-01-20T01:17:11.291Z,11.57
2024-01-20T01:19:38.452Z,12.20
2024-01-20T01:22:05.637Z,14.15
2024-01-20T01:24:32.865Z,9.05
2024-01-20T01:27:00.006Z,14.18
2024-01-20T01:29:27.337Z,11.13
2024-01-20T01:31:55.512Z,9.57
2024-01-20T01:34:22.768Z,12.15
2024-01-20T01:36:50.048Z,10.02
2024-01-20T01:39:18.957Z,11.88
2024-01-20T01:41:46.140Z,12.37
2024-01-20T01:44:13.433Z,12.63
2024-01-20T01:46:41.294Z,13.07
2024-01-20T01:49:09.089Z,13.80
2024-01-20T01:51:36.583Z,12.60
2024-01-20T01:54:04.784Z,14.53
2024-01-20T01:56:32.756Z,10.52
2024-01-20T01:59:00.188Z,15.38
2024-01-20T02:01:27.449Z,12.85
2024-01-20T02:03:54.715Z,12.90
2024-01-20T02:06:22.330Z,12.07
2024-01-20T02:08:49.708Z,12.93
2024-01-20T02:11:17.423Z,12.80
2024-01-20T02:13:45.122Z,15.85
2024-01-20T02:16:12.357Z,17.10
2024-01-20T02:19:06.830Z,13.23
2024-01-20T02:21:35.881Z,11.18
2024-01-20T02:24:05.651Z,12.90
2024-01-20T02:26:32.909Z,16.48
2024-01-20T02:29:00.037Z,14.35
2024-01-20T02:31:27.117Z,15.17
2024-01-20T02:33:54.426Z,14.57
2024-01-20T02:36:21.702Z,17.50
2024-01-20T02:38:49.700Z,16.35
2024-01-20T02:41:16.860Z,13.35
2024-01-20T02:43:43.885Z,13.83
2024-01-20T02:46:10.880Z,13.95
2024-01-20T02:48:38.087Z,12.23
2024-01-20T02:51:05.657Z,15.77
2024-01-20T02:53:32.734Z,14.02
2024-01-20T02:55:59.873Z,13.33
2024-01-20T02:58:26.952Z,15.43
2024-01-20T03:00:54.383Z,16.48
2024-01-20T03:03:21.562Z,14.48
2024-01-20T03:05:48.826Z,16.35
2024-01-20T03:08:16.168Z,19.47
2024-01-20T03:10:43.400Z,18.33
2024-01-20T03:13:10.468Z,11.68
2024-01-20T03:15:37.596Z,20.73
2024-01-20T03:18:05.214Z,13.85
2024-01-20T03:20:32.315Z,14.67
2024-01-20T03:22:59.452Z,14.13
2024-01-20T03:25:26.528Z,16.65
2024-01-20T03:27:56.834Z,15.77
2024-01-20T03:30:23.996Z,16.98
2024-01-20T03:32:52.812Z,13.87
2024-01-20T03:35:20.253Z,14.32
2024-01-20T03:37:47.448Z,17.30
2024-01-20T03:40:15.624Z,19.58
2024-01-20T03:42:42.864Z,18.40
2024-01-20T03:45:10.583Z,17.13
2024-01-20T03:47:38.227Z,16.25
2024-01-20T03:50:07.982Z,17.15
2024-01-20T03:52:35.208Z,14.65
2024-01-20T03:55:02.326Z,19.08
2024-01-20T03:57:31.626Z,17.97
2024-01-20T03:59:59.385Z,14.65
2024-01-20T04:02:27.316Z,17.33
2024-01-20T04:04:54.835Z,15.95
2024-01-20T04:07:24.312Z,15.70
2024-01-20T04:09:51.494Z,15.50
2024-01-20T04:12:19.458Z,18.83
2024-01-20T04:14:46.636Z,16.27
2024-01-20T04:17:13.973Z,14.15
2024-01-20T04:19:41.355Z,15.32
2024-01-20T04:22:08.704Z,19.30
2024-01-20T04:24:35.858Z,18.45
2024-01-20T04:27:03.022Z,20.00
2024-01-20T04:29:30.082Z,13.98
2024-01-20T04:31:57.401Z,18.77
2024-01-20T04:34:24.590Z,17.40
2024-01-20T04:36:51.802Z,18.83
2024-01-20T04:39:18.989Z,22.33
2024-01-20T04:41:46.136Z,17.90
2024-01-20T04:44:20.430Z,29.67
2024-01-20T04:47:07.328Z,22.40
2024-01-20T04:49:40.764Z,20.25
2024-01-20T04:52:15.800Z,16.35
2024-01-20T04:54:54.187Z,16.27
2024-01-20T04:57:36.593Z,13.00
2024-01-20T05:03:39.183Z,16.92
2024-01-20T05:06:29.667Z,18.48
2024-01-20T05:09:18.874Z,19.10
2024-01-20T05:12:04.605Z,17.00
2024-01-20T05:15:10.717Z,17.13
2024-01-20T05:18:45.333Z,15.95
2024-01-20T05:21:16.087Z,15.43
2024-01-20T05:23:43.331Z,18.20
2024-01-20T05:26:10.514Z,15.60
2024-01-20T05:28:37.584Z,19.13
2024-01-20T05:31:04.772Z,21.25
2024-01-20T05:33:35.066Z,16.60
2024-01-20T05:36:02.214Z,18.70
2024-01-20T05:38:29.370Z,18.25
2024-01-20T05:40:57.513Z,18.37
2024-01-20T05:43:24.818Z,20.50
2024-01-20T05:45:51.929Z,18.33
2024-01-20T05:48:19.239Z,25.25
2024-01-20T05:50:47.325Z,15.40
2024-01-20T05:53:15.510Z,16.27
2024-01-20T05:55:42.552Z,16.77
2024-01-20T05:58:09.592Z,19.63
2024-01-20T06:00:36.769Z,20.67
2024-01-20T06:03:04.209Z,19.20
2024-01-20T06:05:31.372Z,20.93
2024-01-20T06:07:58.495Z,15.80
2024-01-20T06:10:25.932Z,18.63
2024-01-20T06:12:53.211Z,17.05
2024-01-20T06:15:20.361Z,16.70
2024-01-20T06:17:47.482Z,21.27
2024-01-20T06:20:16.855Z,17.58
2024-01-20T06:22:43.871Z,19.05
2024-01-20T06:25:11.392Z,17.38
2024-01-20T06:27:38.620Z,16.88
2024-01-20T06:30:06.452Z,18.43
2024-01-20T06:32:33.695Z,19.02
2024-01-20T06:35:00.924Z,17.13
2024-01-20T06:37:28.017Z,22.92
2024-01-20T06:39:55.050Z,18.58
2024-01-20T06:42:22.725Z,19.30
2024-01-20T06:44:49.803Z,19.73
2024-01-20T06:47:17.026Z,16.83
2024-01-20T06:49:50.680Z,15.55
2024-01-20T06:52:18.105Z,24.70
2024-01-20T06:54:45.348Z,16.80
2024-01-20T06:57:13.904Z,14.07
2024-01-20T06:59:50.810Z,19.73
2024-01-20T07:02:17.952Z,16.27
2024-01-20T07:04:54.208Z,16.40
2024-01-20T07:07:27.173Z,18.17
2024-01-20T07:09:54.243Z,19.08
2024-01-20T07:12:45.906Z,19.45
2024-01-20T07:15:23.933Z,17.25
2024-01-20T07:17:58.846Z,17.42
2024-01-20T07:20:26.484Z,18.27
2024-01-20T07:22:53.652Z,17.85
2024-01-20T07:25:20.840Z,17.30
2024-01-20T07:27:48.477Z,18.02
2024-01-20T07:30:15.750Z,16.65
2024-01-20T07:32:42.866Z,16.27
2024-01-20T07:35:10.459Z,20.05
2024-01-20T07:37:37.700Z,17.15
2024-01-20T07:40:10.816Z,18.80
2024-01-20T07:42:37.972Z,17.63
2024-01-20T07:45:05.704Z,13.97
2024-01-20T07:47:32.907Z,18.73
2024-01-20T07:50:00.207Z,16.58
2024-01-20T07:52:27.372Z,16.95
2024-01-20T07:55:20.400Z,21.70
2024-01-20T07:57:47.457Z,16.63
2024-01-20T08:00:14.830Z,21.40
2024-01-20T08:02:48.447Z,20.05
2024-01-20T08:05:15.662Z,16.38
2024-01-20T08:07:43.711Z,18.80
2024-01-20T08:10:11.362Z,19.83
2024-01-20T08:12:41.094Z,18.20
2024-01-20T08:15:10.974Z,19.10
2024-01-20T08:17:38.430Z,20.75
2024-01-20T08:24:35.159Z,16.83
2024-01-20T08:27:05.861Z,16.73
2024-01-20T08:29:35.194Z,20.25
2024-01-20T08:32:02.235Z,17.25
2024-01-20T08:34:29.429Z,21.17
2024-01-20T08:36:56.527Z,17.37
2024-01-20T08:39:23.721Z,16.95
2024-01-20T08:41:50.906Z,18.80
2024-01-20T08:45:01.366Z,18.25
2024-01-20T08:48:07.643Z,19.58
2024-01-20T08:50:48.771Z,15.27
2024-01-20T08:53:15.871Z,16.20
2024-01-20T08:55:43.046Z,18.52
2024-01-20T08:58:11.226Z,15.35
2024-01-20T09:00:38.917Z,19.05
2024-01-20T09:03:06.177Z,19.57
2024-01-20T09:05:38.160Z,17.98
2024-01-20T09:08:09.142Z,16.25
2024-01-20T09:10:37.635Z,18.13
2024-01-20T09:13:05.298Z,18.38
2024-01-20T09:15:33.360Z,17.03
2024-01-20T09:18:01.250Z,21.67
2024-01-20T09:20:28.715Z,16.73
2024-01-20T09:22:58.177Z,15.65
2024-01-20T09:25:25.290Z,16.23
2024-01-20T09:27:52.532Z,16.13
2024-01-20T09:30:19.657Z,32.08
2024-01-20T09:32:47.842Z,20.58
2024-01-20T09:35:14.995Z,16.05
2024-01-20T09:37:44.969Z,17.33
2024-01-20T09:40:14.756Z,19.27
2024-01-20T09:42:42.758Z,21.27
2024-01-20T09:45:13.319Z,17.15
2024-01-20T09:47:43.126Z,17.38
2024-01-20T09:50:10.975Z,18.52
2024-01-20T09:52:56.576Z,20.80
2024-01-20T09:55:24.940Z,17.20
2024-01-20T09:57:53.446Z,18.17
2024-01-20T10:00:23.203Z,15.40
2024-01-20T10:02:50.458Z,19.38
2024-01-20T10:05:29.853Z,21.03
2024-01-20T10:07:58.253Z,19.30
2024-01-20T10:10:25.329Z,18.17
2024-01-20T10:12:54.749Z,19.83
2024-01-20T10:15:29.833Z,23.33
2024-01-20T10:18:00.850Z,17.27
2024-01-20T10:20:32.651Z,23.00
2024-01-20T10:23:05.379Z,16.88
2024-01-20T10:25:35.683Z,16.25
2024-01-20T10:28:03.090Z,22.33
2024-01-20T10:30:31.365Z,19.17
2024-01-20T10:35:30.735Z,20.63
2024-01-20T10:38:01.583Z,20.77
2024-01-20T10:40:29.163Z,16.83
2024-01-20T10:43:01.350Z,19.93
2024-01-20T10:45:34.443Z,20.67
2024-01-20T10:48:08.195Z,22.02
2024-01-20T10:50:39.981Z,16.35
2024-01-20T10:53:08.773Z,21.23
2024-01-20T10:55:48.400Z,15.97
2024-01-20T10:58:23.038Z,18.98
2024-01-20T11:00:51.874Z,24.60
2024-01-20T11:03:21.969Z,18.15
2024-01-20T11:05:49.714Z,19.30
2024-01-20T11:08:25.655Z,19.90
2024-01-20T11:10:55.478Z,16.38
2024-01-20T11:13:29.264Z,21.83
2024-01-20T11:15:59.167Z,18.98
2024-01-20T11:18:28.784Z,18.52
2024-01-20T11:21:04.802Z,21.30
2024-01-20T11:23:32.396Z,16.65
2024-01-20T11:26:11.294Z,20.25
2024-01-20T11:28:46.630Z,17.70
2024-01-20T11:31:21.070Z,24.35
2024-01-20T11:33:48.464Z,18.53
2024-01-20T11:36:17.364Z,17.65
2024-01-20T11:38:45.140Z,19.23
2024-01-20T11:41:12.625Z,17.27
2024-01-20T11:43:46.563Z,17.73
2024-01-20T11:46:13.885Z,20.47
2024-01-20T11:48:41.698Z,21.75
2024-01-20T11:51:08.857Z,15.68
2024-01-20T11:53:36.027Z,22.02
2024-01-20T11:56:04.439Z,20.55
2024-01-20T11:58:32.009Z,16.83
2024-01-20T12:01:00.795Z,17.75
2024-01-20T12:03:28.713Z,20.77
2024-01-20T12:05:56.723Z,19.27
2024-01-20T12:08:24.000Z,17.10
2024-01-20T12:10:52.197Z,17.23
2024-01-20T12:13:19.650Z,19.33
2024-01-20T12:15:49.210Z,15.82
2024-01-20T12:18:18.456Z,17.70
2024-01-20T12:20:45.917Z,18.13
2024-01-20T12:23:24.211Z,22.53
2024-01-20T12:25:54.647Z,16.05
2024-01-20T12:28:22.677Z,18.83
2024-01-20T12:30:50.334Z,20.35
2024-01-20T12:33:17.554Z,18.13
2024-01-20T12:35:44.963Z,14.77
2024-01-20T12:38:12.526Z,23.33
2024-01-20T12:40:39.587Z,22.85
2024-01-20T12:43:06.821Z,18.35
2024-01-20T12:45:34.130Z,17.80
2024-01-20T12:48:01.317Z,19.13
2024-01-20T12:50:28.548Z,19.25
2024-01-20T12:52:55.738Z,18.95
2024-01-20T12:55:22.969Z,21.40
2024-01-20T12:57:50.122Z,16.20
2024-01-20T13:00:17.658Z,16.30
2024-01-20T13:02:44.941Z,18.40
2024-01-20T13:05:12.098Z,19.95
2024-01-20T13:07:39.517Z,24.08
2024-01-20T13:10:07.052Z,16.40
2024-01-20T13:12:34.414Z,16.70
2024-01-20T13:15:01.930Z,20.40
2024-01-20T13:17:32.879Z,14.77
2024-01-20T13:20:00.016Z,17.83
2024-01-20T13:22:27.935Z,16.80
2024-01-20T13:24:58.347Z,19.33
2024-01-20T13:27:25.668Z,18.02
2024-01-20T13:29:52.803Z,18.23
2024-01-20T13:32:19.894Z,16.80
2024-01-20T13:34:47.192Z,16.88
2024-01-20T13:37:14.442Z,20.13
2024-01-20T13:39:41.660Z,21.83
2024-01-20T13:42:08.935Z,16.27
2024-01-20T13:44:36.038Z,17.20
2024-01-20T13:47:03.200Z,18.05
2024-01-20T13:49:32.379Z,14.87
2024-01-20T13:51:59.664Z,21.95
2024-01-20T13:54:26.991Z,22.83
2024-01-20T13:56:54.061Z,13.40
2024-01-20T13:59:21.116Z,18.13
2024-01-20T14:01:49.114Z,19.60
2024-01-20T14:04:16.355Z,18.05
2024-01-20T14:06:43.605Z,17.98
2024-01-20T14:09:11.351Z,21.73
2024-01-20T14:11:38.606Z,18.95
2024-01-20T14:14:05.748Z,17.93
2024-01-20T14:16:33.005Z,22.92
2024-01-20T14:19:01.085Z,17.40
2024-01-20T14:21:29.185Z,20.35
2024-01-20T14:23:56.373Z,22.90
2024-01-20T14:26:23.481Z,15.07
2024-01-20T14:28:51.261Z,17.35
2024-01-20T14:31:18.369Z,15.73
2024-01-20T14:33:45.468Z,17.92
2024-01-20T14:36:12.556Z,14.85
2024-01-20T14:38:39.683Z,16.30
2024-01-20T14:41:06.849Z,21.02
2024-01-20T14:43:33.946Z,17.23
2024-01-20T14:46:01.089Z,17.60
2024-01-20T14:48:28.240Z,21.95
2024-01-20T14:50:55.409Z,16.37
2024-01-20T14:53:24.436Z,23.95
2024-01-20T14:55:51.551Z,22.60
2024-01-20T14:58:18.671Z,14.85
2024-01-20T15:00:46.010Z,21.65
2024-01-20T15:03:13.426Z,18.90
2024-01-20T15:05:40.635Z,16.70
2024-01-20T15:08:07.956Z,18.52
2024-01-20T15:10:35.026Z,20.30
2024-01-20T15:13:03.331Z,18.40
2024-01-20T15:15:30.620Z,16.47
2024-01-20T15:17:57.789Z,23.08
2024-01-20T15:20:24.898Z,18.17
2024-01-20T15:22:52.039Z,22.88
2024-01-20T15:25:20.072Z,17.52
2024-01-20T15:27:49.075Z,18.50
2024-01-20T15:30:16.352Z,18.98
2024-01-20T15:32:43.612Z,19.77
2024-01-20T15:35:10.885Z,20.15
2024-01-20T15:37:37.933Z,19.55
2024-01-20T15:40:11.333Z,20.83
2024-01-20T15:42:41.599Z,17.77
2024-01-20T15:45:09.543Z,21.48
2024-01-20T15:47:36.681Z,18.98
2024-01-20T15:50:05.126Z,21.60
2024-01-20T15:52:32.439Z,18.07
2024-01-20T15:55:00.471Z,22.92
2024-01-20T15:57:27.770Z,22.15
2024-01-20T15:59:54.971Z,20.92
2024-01-20T16:02:22.134Z,21.15
2024-01-20T16:04:49.199Z,18.67
2024-01-20T16:07:16.658Z,20.42
2024-01-20T16:09:44.101Z,18.38
2024-01-20T16:12:11.673Z,18.05
2024-01-20T16:14:38.886Z,20.35
2024-01-20T16:17:05.970Z,23.37
2024-01-20T16:19:33.137Z,21.25
2024-01-20T16:22:00.311Z,21.50
2024-01-20T16:24:27.550Z,22.08
2024-01-20T16:26:54.836Z,20.40
2024-01-20T16:29:21.995Z,18.87
2024-01-20T16:31:49.362Z,22.25
2024-01-20T16:34:16.671Z,18.65
2024-01-20T16:36:44.110Z,18.38
2024-01-20T16:39:11.811Z,22.33
2024-01-20T16:41:42.005Z,25.50
2024-01-20T16:44:09.113Z,19.83
2024-01-20T16:46:39.437Z,21.60
2024-01-20T16:49:07.058Z,20.98
2024-01-20T16:51:34.262Z,21.95
2024-01-20T16:54:04.445Z,21.90
2024-01-20T16:56:31.479Z,18.15
2024-01-20T16:59:01.712Z,20.50
2024-01-20T17:01:28.795Z,21.33
2024-01-20T17:03:55.877Z,19.25
2024-01-20T17:06:23.670Z,20.90
2024-01-20T17:08:50.860Z,20.92
2024-01-20T17:11:18.016Z,24.35
2024-01-20T17:13:46.118Z,22.10
2024-01-20T17:16:13.245Z,23.02
2024-01-20T17:18:40.511Z,21.83
2024-01-20T17:21:16.461Z,18.58
2024-01-20T17:23:44.750Z,22.60
2024-01-20T17:26:12.176Z,21.95
2024-01-20T17:28:39.378Z,26.20
2024-01-20T17:31:06.540Z,22.17
2024-01-20T17:33:33.743Z,23.55
2024-01-20T17:36:01.529Z,19.17
2024-01-20T17:38:28.555Z,18.73
2024-01-20T17:40:56.074Z,21.92
2024-01-20T17:43:23.100Z,39.20
2024-01-20T17:45:50.525Z,23.50
2024-01-20T17:48:17.944Z,22.77
2024-01-20T17:50:45.141Z,18.27
2024-01-20T17:53:13.804Z,19.30
2024-01-20T17:55:41.514Z,19.37
2024-01-20T17:58:10.342Z,23.45
2024-01-20T18:00:38.183Z,19.80
2024-01-20T18:03:14.749Z,19.88
2024-01-20T18:05:42.035Z,23.50
2024-01-20T18:08:10.093Z,19.03
2024-01-20T18:10:37.130Z,16.42
2024-01-20T18:13:06.886Z,22.80
2024-01-20T18:15:34.096Z,19.55
2024-01-20T18:18:02.234Z,16.70
2024-01-20T18:20:29.512Z,19.73
2024-01-20T18:22:56.603Z,19.60
2024-01-20T18:25:23.701Z,21.13
2024-01-20T18:27:51.024Z,19.13
2024-01-20T18:30:19.094Z,18.95
2024-01-20T18:32:46.229Z,20.93
2024-01-20T18:35:13.325Z,17.35
2024-01-20T18:37:43.015Z,18.85
2024-01-20T18:40:11.386Z,21.63
2024-01-20T18:42:38.979Z,17.73
2024-01-20T18:45:06.874Z,19.53
2024-01-20T18:47:34.036Z,19.08
2024-01-20T18:50:01.144Z,18.77
2024-01-20T18:52:29.085Z,20.23
2024-01-20T18:54:56.323Z,17.30
2024-01-20T18:57:23.640Z,20.50
2024-01-20T18:59:50.769Z,19.83
2024-01-20T19:02:19.800Z,19.75
2024-01-20T19:04:47.193Z,23.25
2024-01-20T19:07:14.367Z,19.45
2024-01-20T19:09:41.600Z,15.97
2024-01-20T19:12:09.041Z,17.98
2024-01-20T19:14:36.314Z,19.17
2024-01-20T19:17:03.450Z,14.35
2024-01-20T19:19:32.922Z,14.82
2024-01-20T19:21:59.989Z,14.20
2024-01-20T19:24:27.402Z,14.98
2024-01-20T19:26:54.478Z,14.80
2024-01-20T19:29:23.976Z,11.20
2024-01-20T19:31:51.234Z,15.65
2024-01-20T19:34:19.072Z,15.37
2024-01-20T19:36:46.703Z,13.38
2024-01-20T19:39:14.472Z,11.25
2024-01-20T19:41:41.609Z,15.05
2024-01-20T19:44:08.781Z,16.30
2024-01-20T19:46:41.135Z,13.87
2024-01-20T19:49:08.864Z,16.30
2024-01-20T19:51:41.555Z,14.15
2024-01-20T19:54:09.735Z,13.73
2024-01-20T19:56:42.521Z,15.27
2024-01-20T19:59:10.409Z,14.13
2024-01-20T20:01:45.745Z,13.55
2024-01-20T20:04:17.748Z,14.18
2024-01-20T20:06:49.409Z,14.93
2024-01-20T20:09:17.961Z,18.15
2024-01-20T20:11:45.276Z,14.60
2024-01-20T20:14:13.378Z,24.52
2024-01-20T20:16:41.583Z,19.08
2024-01-20T20:19:10.683Z,18.92
2024-01-20T20:21:38.038Z,12.77
2024-01-20T20:24:05.755Z,15.47
2024-01-20T20:26:32.900Z,14.48
2024-01-20T20:29:00.057Z,12.52
2024-01-20T20:31:28.380Z,23.10
2024-01-20T20:33:55.817Z,14.32
2024-01-20T20:36:23.064Z,12.87
2024-01-20T20:38:50.295Z,17.42
2024-01-20T20:41:17.488Z,14.88
2024-01-20T20:43:44.547Z,15.45
2024-01-20T20:46:11.566Z,13.63
2024-01-20T20:48:38.703Z,15.77
2024-01-20T20:51:06.011Z,14.55
2024-01-20T20:53:33.117Z,13.98
2024-01-20T20:56:00.257Z,15.25
2024-01-20T20:58:27.374Z,14.52
2024-01-20T21:00:54.562Z,16.67
2024-01-20T21:03:21.948Z,18.52
2024-01-20T21:05:49.532Z,15.27
2024-01-20T21:08:17.067Z,18.58
2024-01-20T21:10:44.145Z,16.15
2024-01-20T21:13:11.596Z,15.43
2024-01-20T21:15:39.325Z,16.63
2024-01-20T21:18:06.650Z,13.52
2024-01-20T21:20:34.148Z,14.40
2024-01-20T21:23:01.321Z,11.38
2024-01-20T21:25:30.701Z,20.03
2024-01-20T21:27:58.563Z,26.23
2024-01-20T21:30:25.760Z,16.80
2024-01-20T21:32:53.097Z,22.05
2024-01-20T21:35:20.430Z,11.30
2024-01-20T21:37:47.702Z,11.17
2024-01-20T21:40:14.948Z,10.45
2024-01-20T21:42:42.178Z,13.25
2024-01-20T21:45:10.964Z,11.27
2024-01-20T21:47:38.323Z,8.30
2024-01-20T21:50:06.589Z,8.07
2024-01-20T21:52:33.724Z,10.20
2024-01-20T21:55:02.930Z,9.00
2024-01-20T21:57:33.247Z,8.80
2024-01-20T22:00:00.580Z,7.43
2024-01-20T22:02:28.775Z,6.73
2024-01-20T22:04:55.815Z,8.10
2024-01-20T22:07:23.632Z,8.25
2024-01-20T22:09:50.859Z,10.07
2024-01-20T22:12:18.113Z,9.00
2024-01-20T22:14:45.275Z,8.70
2024-01-20T22:17:12.459Z,7.18
2024-01-20T22:19:39.696Z,6.75
2024-01-20T22:22:07.013Z,8.43
2024-01-20T22:24:34.268Z,9.15
2024-01-20T22:27:01.402Z,9.27
2024-01-20T22:29:31.793Z,8.30
2024-01-20T22:32:00.213Z,8.23
2024-01-20T22:34:32.346Z,7.82
2024-01-20T22:37:00.544Z,29.45
2024-01-20T22:39:28.561Z,21.23
2024-01-20T22:41:55.868Z,15.13
2024-01-20T22:44:22.980Z,13.07
2024-01-20T22:46:51.116Z,7.72
2024-01-20T22:49:18.556Z,10.77
2024-01-20T22:51:45.816Z,9.80
2024-01-20T22:54:15.084Z,7.60
2024-01-20T22:56:42.248Z,10.93
2024-01-20T22:59:09.426Z,9.13
2024-01-20T23:01:36.650Z,9.45
2024-01-20T23:04:06.475Z,8.97
2024-01-20T23:06:33.816Z,9.23
2024-01-20T23:09:02.285Z,8.02
2024-01-20T23:11:29.480Z,9.43
2024-01-20T23:13:56.796Z,10.57
2024-01-20T23:16:23.878Z,11.20
2024-01-20T23:18:51.490Z,8.40
2024-01-20T23:21:18.688Z,9.15
2024-01-20T23:23:45.820Z,10.45
2024-01-20T23:26:17.448Z,10.80
2024-01-20T23:28:44.720Z,10.17
2024-01-20T23:31:12.382Z,10.10
2024-01-20T23:33:39.856Z,10.95
2024-01-20T23:36:07.447Z,10.15
2024-01-20T23:38:34.987Z,12.77
2024-01-20T23:41:02.159Z,11.17
2024-01-20T23:43:29.215Z,9.32
2024-01-20T23:45:56.477Z,10.55
2024-01-20T23:48:23.741Z,10.32
2024-01-20T23:50:51.044Z,11.15
2024-01-20T23:53:18.232Z,9.97
2024-01-20T23:55:45.433Z,11.00
2024-01-20T23:58:12.663Z,9.25
